Time;durP1;ratioP1;P1;durP2;ratioP2;P2;SDS_P1;SDS_P2;PMS_P1;PMS_P2;Temp;Humidity;BMP_temperature;BMP_pressure;BME280_temperature;BME280_humidity;BME280_pressure;Samples;Min_cycle;Max_cycle;Signal;HPM_P1;HPM_P2
2020/12/22 00:01:11;;;;;;;;;;;9.70;99.90;;;;;;5064220;28;19908;-66
2020/12/22 00:03:37;;;;;;;;;;;9.90;99.90;;;;;;5054183;28;20375;-67
2020/12/22 00:06:02;;;;;;;;;;;9.80;99.90;;;;;;5062745;28;19908;-66
2020/12/22 00:08:28;;;;;;;;;;;9.90;99.90;;;;;;5064782;28;19908;-67
2020/12/22 00:10:54;;;;;;;;;;;9.90;99.90;;;;;;5067137;28;19908;-66
2020/12/22 00:13:19;;;;;;;;;;;9.80;99.90;;;;;;5053786;28;19908;-66
2020/12/22 00:15:45;;;;;;;;;;;9.90;99.90;;;;;;5061799;28;19916;-66
2020/12/22 00:18:11;;;;;;;;;;;9.90;99.90;;;;;;5071170;28;20409;-66
2020/12/22 00:20:36;;;;;;;;;;;10.00;99.90;;;;;;5060389;28;19924;-66
2020/12/22 00:23:02;;;;;;;;;;;10.00;99.90;;;;;;5067377;28;20273;-66
2020/12/22 00:25:27;;;;;;;;;;;10.00;99.90;;;;;;5066706;28;19917;-66
2020/12/22 00:27:53;;;;;;;;;;;9.90;99.90;;;;;;5060040;28;19905;-66
2020/12/22 00:30:18;;;;;;;;;;;10.00;99.90;;;;;;5059223;28;19908;-67
2020/12/22 00:32:44;;;;;;;;;;;10.00;99.90;;;;;;5064902;28;19910;-66
2020/12/22 00:35:09;;;;;;;;;;;10.00;99.90;;;;;;5066332;28;19915;-67
2020/12/22 00:37:35;;;;;;;;;;;10.10;99.90;;;;;;5061619;28;19905;-67
2020/12/22 00:40:00;;;;;;;;;;;10.00;99.90;;;;;;5063635;28;19935;-66
2020/12/22 00:42:29;;;;;;;;;;;10.10;99.90;;;;;;5061594;28;19951;-66
2020/12/22 00:44:54;;;;;;;;;;;10.00;99.90;;;;;;5055399;28;19915;-66
2020/12/22 00:47:20;;;;;;;;;;;10.10;99.90;;;;;;5063225;28;19909;-66
2020/12/22 00:49:46;;;;;;;;;;;10.10;99.90;;;;;;5070292;28;20653;-67
2020/12/22 00:52:11;;;;;;;;;;;10.00;99.90;;;;;;5062050;28;20392;-66
2020/12/22 00:54:37;;;;;;;;;;;10.00;99.90;;;;;;5055136;28;19950;-67
2020/12/22 00:57:02;;;;;;;;;;;10.10;99.90;;;;;;5062110;28;19947;-66
2020/12/22 00:59:28;;;;;;;;;;;9.90;99.90;;;;;;5051861;28;19956;-67
2020/12/22 01:01:53;;;;;;;;;;;9.90;99.90;;;;;;5069075;28;20007;-67
2020/12/22 01:04:19;;;;;;;;;;;9.90;99.90;;;;;;5061267;28;19916;-66
2020/12/22 01:06:44;;;;;;;;;;;9.90;99.90;;;;;;5062428;28;20538;-66
2020/12/22 01:09:10;;;;;;;;;;;9.70;99.90;;;;;;5071297;28;19947;-66
2020/12/22 01:11:36;;;;;;;;;;;9.70;99.90;;;;;;5047387;28;20413;-66
2020/12/22 01:14:03;;;;;;;;;;;9.50;99.90;;;;;;5052652;28;19951;-66
2020/12/22 01:16:28;;;;;;;;;;;9.60;99.90;;;;;;5063403;28;20333;-66
2020/12/22 01:18:54;;;;;;;;;;;9.60;99.90;;;;;;5068776;28;19985;-66
2020/12/22 01:21:20;;;;;;;;;;;9.50;99.90;;;;;;5059919;28;19944;-66
2020/12/22 01:23:45;;;;;;;;;;;9.50;99.90;;;;;;5072020;28;20010;-66
2020/12/22 01:26:11;;;;;;;;;;;9.40;99.90;;;;;;5065749;28;20050;-66
2020/12/22 01:28:37;;;;;;;;;;;9.40;99.90;;;;;;5057591;28;19909;-66
2020/12/22 01:31:02;;;;;;;;;;;9.60;99.90;;;;;;5065540;28;19905;-66
2020/12/22 01:33:28;;;;;;;;;;;9.50;99.90;;;;;;5071166;28;19919;-66
2020/12/22 01:35:53;;;;;;;;;;;9.40;99.90;;;;;;5065972;28;19993;-66
2020/12/22 01:38:19;;;;;;;;;;;9.40;99.90;;;;;;5063335;28;20016;-66
2020/12/22 01:40:47;;;;;;;;;;;9.60;99.90;;;;;;5065260;28;19908;-66
2020/12/22 01:43:13;;;;;;;;;;;9.50;99.90;;;;;;5067810;28;19917;-65
2020/12/22 01:45:38;;;;;;;;;;;9.40;99.90;;;;;;5057821;28;19912;-66
2020/12/22 01:48:04;;;;;;;;;;;9.40;99.90;;;;;;5060125;28;19962;-66
2020/12/22 01:50:29;;;;;;;;;;;9.60;99.90;;;;;;5050844;28;20304;-67
2020/12/22 01:52:55;;;;;;;;;;;9.40;99.90;;;;;;5064630;28;19905;-66
2020/12/22 01:55:20;;;;;;;;;;;9.50;99.90;;;;;;5065172;28;19909;-66
2020/12/22 01:57:46;;;;;;;;;;;9.40;99.90;;;;;;5059205;28;19952;-66
2020/12/22 02:00:11;;;;;;;;;;;9.30;99.90;;;;;;5060035;28;19908;-66
2020/12/22 02:02:38;;;;;;;;;;;9.30;99.90;;;;;;5059980;28;19965;-66
2020/12/22 02:05:04;;;;;;;;;;;9.20;99.90;;;;;;5069031;28;19912;-66
2020/12/22 02:07:29;;;;;;;;;;;9.30;99.90;;;;;;5060105;28;19904;-66
2020/12/22 02:09:55;;;;;;;;;;;9.30;99.90;;;;;;5064960;28;19923;-66
2020/12/22 02:12:20;;;;;;;;;;;9.20;99.90;;;;;;5067469;28;19919;-66
2020/12/22 02:14:46;;;;;;;;;;;9.00;99.90;;;;;;5068124;28;19913;-66
2020/12/22 02:17:13;;;;;;;;;;;9.20;99.90;;;;;;5058833;28;19920;-66
2020/12/22 02:19:38;;;;;;;;;;;9.10;99.90;;;;;;5051022;28;19908;-66
2020/12/22 02:22:04;;;;;;;;;;;8.90;99.90;;;;;;5061462;28;19966;-66
2020/12/22 02:24:32;;;;;;;;;;;8.90;99.90;;;;;;5068240;28;19904;-66
2020/12/22 02:26:59;;;;;;;;;;;8.90;99.90;;;;;;5061440;28;19917;-66
2020/12/22 02:29:25;;;;;;;;;;;8.70;99.90;;;;;;5050129;28;20447;-66
2020/12/22 02:31:50;;;;;;;;;;;8.80;99.90;;;;;;5060808;28;19904;-66
2020/12/22 02:34:16;;;;;;;;;;;8.80;99.90;;;;;;5068869;28;19954;-66
2020/12/22 02:36:41;;;;;;;;;;;8.80;99.90;;;;;;5048486;28;19962;-66
2020/12/22 02:39:07;;;;;;;;;;;8.80;99.90;;;;;;5049909;28;19958;-66
2020/12/22 02:41:32;;;;;;;;;;;8.90;99.90;;;;;;5050613;28;19916;-66
2020/12/22 02:43:58;;;;;;;;;;;8.80;99.90;;;;;;5067109;28;20399;-66
2020/12/22 02:46:23;;;;;;;;;;;8.80;99.90;;;;;;5060948;28;20253;-67
2020/12/22 02:48:49;;;;;;;;;;;8.80;99.90;;;;;;5051325;28;20495;-66
2020/12/22 02:51:14;;;;;;;;;;;8.90;99.90;;;;;;5060127;28;19915;-66
2020/12/22 02:53:40;;;;;;;;;;;8.90;99.90;;;;;;5060974;28;20003;-66
2020/12/22 02:56:05;;;;;;;;;;;8.80;99.90;;;;;;5063167;28;20414;-66
2020/12/22 02:58:31;;;;;;;;;;;8.80;99.90;;;;;;5051644;28;20377;-66
2020/12/22 03:00:56;;;;;;;;;;;8.80;99.90;;;;;;5058061;28;19909;-66
2020/12/22 03:03:22;;;;;;;;;;;8.80;99.90;;;;;;5053900;28;19924;-66
2020/12/22 03:05:47;;;;;;;;;;;8.80;99.90;;;;;;5055959;28;19912;-66
2020/12/22 03:08:13;;;;;;;;;;;8.80;99.90;;;;;;5031366;28;640734;-66
2020/12/22 03:10:39;;;;;;;;;;;8.90;99.90;;;;;;5056659;28;19908;-67
2020/12/22 03:13:05;;;;;;;;;;;8.90;99.90;;;;;;5069900;28;19916;-66
2020/12/22 03:15:30;;;;;;;;;;;8.90;99.90;;;;;;5064930;28;19908;-66
2020/12/22 03:17:56;;;;;;;;;;;8.90;99.90;;;;;;5062617;28;19904;-66
2020/12/22 03:20:24;;;;;;;;;;;8.80;99.90;;;;;;5058424;28;19990;-66
2020/12/22 03:22:49;;;;;;;;;;;8.90;99.90;;;;;;5058592;28;19913;-66
2020/12/22 03:25:15;;;;;;;;;;;8.80;99.90;;;;;;5052310;28;19909;-66
2020/12/22 03:27:41;;;;;;;;;;;8.70;99.90;;;;;;5068051;28;19923;-66
2020/12/22 03:30:07;;;;;;;;;;;8.80;99.90;;;;;;5053427;28;19912;-66
2020/12/22 03:32:33;;;;;;;;;;;8.70;99.90;;;;;;5058575;28;19959;-66
2020/12/22 03:34:58;;;;;;;;;;;8.60;99.90;;;;;;5052248;28;19909;-66
2020/12/22 03:37:24;;;;;;;;;;;8.70;99.90;;;;;;5058660;28;19955;-66
2020/12/22 03:39:50;;;;;;;;;;;8.60;99.90;;;;;;5054628;28;19959;-66
2020/12/22 03:42:17;;;;;;;;;;;8.60;99.90;;;;;;5058556;28;20019;-66
2020/12/22 03:44:43;;;;;;;;;;;8.60;99.90;;;;;;5050732;28;20476;-66
2020/12/22 03:47:09;;;;;;;;;;;8.60;99.90;;;;;;5060740;28;19987;-66
2020/12/22 03:49:34;;;;;;;;;;;8.40;99.90;;;;;;5067129;28;20389;-66
2020/12/22 03:52:00;;;;;;;;;;;8.50;99.90;;;;;;5059796;28;19909;-66
2020/12/22 03:54:26;;;;;;;;;;;8.50;99.90;;;;;;5049939;28;20007;-66
2020/12/22 03:56:51;;;;;;;;;;;8.40;99.90;;;;;;5059340;28;19909;-67
2020/12/22 03:59:17;;;;;;;;;;;8.40;99.90;;;;;;5068788;28;20020;-67
2020/12/22 04:01:42;;;;;;;;;;;8.40;99.90;;;;;;5061017;28;20011;-66
2020/12/22 04:04:08;;;;;;;;;;;8.40;99.90;;;;;;5049608;28;19911;-66
2020/12/22 04:06:33;;;;;;;;;;;8.40;99.90;;;;;;5062331;28;19910;-66
2020/12/22 04:08:59;;;;;;;;;;;8.60;99.90;;;;;;5049507;28;19917;-66
2020/12/22 04:11:24;;;;;;;;;;;8.50;99.90;;;;;;5062149;28;20534;-66
2020/12/22 04:13:50;;;;;;;;;;;8.70;99.90;;;;;;5049559;28;20022;-67
2020/12/22 04:16:15;;;;;;;;;;;8.50;99.90;;;;;;5059943;28;19945;-66
2020/12/22 04:18:41;;;;;;;;;;;8.50;99.90;;;;;;5050264;28;19999;-66
2020/12/22 04:21:07;;;;;;;;;;;8.40;99.90;;;;;;5059645;28;19908;-66
2020/12/22 04:23:32;;;;;;;;;;;8.50;99.90;;;;;;5052596;28;20388;-66
2020/12/22 04:25:58;;;;;;;;;;;8.60;99.90;;;;;;5057715;28;19909;-66
2020/12/22 04:28:23;;;;;;;;;;;8.60;99.90;;;;;;5052554;28;19905;-65
2020/12/22 04:30:49;;;;;;;;;;;8.40;99.90;;;;;;5056380;28;19952;-66
2020/12/22 04:33:14;;;;;;;;;;;8.30;99.90;;;;;;5054734;28;19911;-66
2020/12/22 04:35:40;;;;;;;;;;;8.40;99.90;;;;;;5062937;28;19931;-66
2020/12/22 04:38:06;;;;;;;;;;;8.30;99.90;;;;;;5058763;28;19962;-66
2020/12/22 04:40:32;;;;;;;;;;;8.40;99.90;;;;;;5053782;28;19916;-66
2020/12/22 04:42:58;;;;;;;;;;;8.40;99.90;;;;;;5056896;28;19959;-66
2020/12/22 04:45:24;;;;;;;;;;;8.20;99.90;;;;;;5057431;28;20339;-65
2020/12/22 04:47:50;;;;;;;;;;;8.20;99.90;;;;;;5072775;28;19908;-66
2020/12/22 04:50:16;;;;;;;;;;;8.30;99.90;;;;;;5067967;28;19908;-66
2020/12/22 04:52:43;;;;;;;;;;;8.30;99.90;;;;;;5063794;28;20003;-66
2020/12/22 04:55:10;;;;;;;;;;;8.20;99.90;;;;;;5068657;28;19947;-66
2020/12/22 04:57:36;;;;;;;;;;;8.30;99.90;;;;;;5067065;28;19927;-66
2020/12/22 05:00:04;;;;;;;;;;;8.20;99.90;;;;;;5068604;28;19943;-66
2020/12/22 05:02:31;;;;;;;;;;;8.10;99.90;;;;;;5061201;28;20335;-66
2020/12/22 05:04:57;;;;;;;;;;;8.00;99.90;;;;;;5056239;28;20505;-66
2020/12/22 05:07:22;;;;;;;;;;;7.90;99.90;;;;;;5069012;28;20010;-66
2020/12/22 05:09:48;;;;;;;;;;;7.90;99.90;;;;;;5070164;28;19943;-66
2020/12/22 05:12:14;;;;;;;;;;;8.00;99.90;;;;;;5061115;28;19911;-66
2020/12/22 05:14:40;;;;;;;;;;;7.90;99.90;;;;;;5052577;28;19908;-66
2020/12/22 05:17:06;;;;;;;;;;;8.00;99.90;;;;;;5062651;28;19904;-66
2020/12/22 05:19:35;;;;;;;;;;;7.80;99.90;;;;;;5069897;28;19908;-66
2020/12/22 05:22:02;;;;;;;;;;;7.90;99.90;;;;;;5064440;28;19935;-66
2020/12/22 05:24:28;;;;;;;;;;;7.70;99.90;;;;;;5070526;28;19930;-66
2020/12/22 05:26:54;;;;;;;;;;;7.70;99.90;;;;;;5062821;28;20440;-66
2020/12/22 05:29:20;;;;;;;;;;;7.80;99.90;;;;;;5052145;28;19904;-66
2020/12/22 05:31:47;;;;;;;;;;;7.90;99.90;;;;;;5066115;28;19930;-66
2020/12/22 05:34:13;;;;;;;;;;;7.70;99.90;;;;;;5051848;28;19905;-66
2020/12/22 05:36:39;;;;;;;;;;;7.70;99.90;;;;;;5060649;28;19905;-67
2020/12/22 05:39:12;;;;;;;;;;;7.60;99.90;;;;;;5071907;28;19915;-66
2020/12/22 05:41:37;;;;;;;;;;;7.60;99.90;;;;;;5063306;28;19977;-66
2020/12/22 05:44:03;;;;;;;;;;;7.60;99.90;;;;;;5066437;28;19920;-67
2020/12/22 05:46:30;;;;;;;;;;;7.50;99.90;;;;;;5058476;28;19908;-66
2020/12/22 05:48:59;;;;;;;;;;;7.50;99.90;;;;;;5071780;28;19908;-66
2020/12/22 05:51:25;;;;;;;;;;;7.50;99.90;;;;;;5064649;28;19931;-65
2020/12/22 05:53:52;;;;;;;;;;;7.40;99.90;;;;;;5051072;28;20512;-66
2020/12/22 05:56:18;;;;;;;;;;;7.40;99.90;;;;;;5056588;28;19909;-66
2020/12/22 05:58:44;;;;;;;;;;;7.30;99.90;;;;;;5070917;28;19919;-66
2020/12/22 06:01:12;;;;;;;;;;;7.40;99.90;;;;;;5065137;28;19905;-66
2020/12/22 06:03:38;;;;;;;;;;;7.30;99.90;;;;;;5052505;28;20438;-66
2020/12/22 06:06:06;;;;;;;;;;;7.20;99.90;;;;;;5059710;28;19904;-66
2020/12/22 06:08:31;;;;;;;;;;;7.20;99.90;;;;;;5070212;28;20380;-65
2020/12/22 06:11:00;;;;;;;;;;;7.30;99.90;;;;;;5050234;28;19915;-65
2020/12/22 06:13:25;;;;;;;;;;;7.40;99.90;;;;;;5070457;28;19954;-66
2020/12/22 06:15:51;;;;;;;;;;;7.20;99.90;;;;;;5067587;28;20008;-65
2020/12/22 06:18:17;;;;;;;;;;;7.30;99.90;;;;;;5070126;28;19911;-66
2020/12/22 06:20:43;;;;;;;;;;;7.10;99.90;;;;;;5067194;28;19924;-66
2020/12/22 06:23:09;;;;;;;;;;;7.10;99.90;;;;;;5067339;28;20380;-67
2020/12/22 06:25:34;;;;;;;;;;;7.10;99.90;;;;;;5075516;28;19961;-67
2020/12/22 06:28:00;;;;;;;;;;;7.20;99.90;;;;;;5070519;28;19912;-65
2020/12/22 06:30:36;;;;;;;;;;;7.00;99.90;;;;;;5078412;28;19916;-70
2020/12/22 06:33:23;;;;;;;;;;;8.60;99.90;;;;;;5070705;28;19904;-64
2020/12/22 06:36:07;;;;;;;;;;;7.80;99.90;;;;;;5064816;28;19905;-65
2020/12/22 06:38:52;;;;;;;;;;;7.30;99.90;;;;;;5073408;28;19908;-64
2020/12/22 06:41:32;;;;;;;;;;;7.10;99.90;;;;;;5067864;28;19904;-65
2020/12/22 06:44:09;;;;;;;;;;;7.10;99.90;;;;;;5061151;28;21616;-64
2020/12/22 06:46:35;;;;;;;;;;;6.90;99.90;;;;;;5066062;28;19904;-65
2020/12/22 06:49:01;;;;;;;;;;;6.90;99.90;;;;;;5070682;28;19914;-64
2020/12/22 06:51:28;;;;;;;;;;;7.00;99.90;;;;;;5063715;28;19904;-64
2020/12/22 06:53:53;;;;;;;;;;;7.00;99.90;;;;;;5082922;28;20324;-64
2020/12/22 06:56:57;;;;;;;;;;;7.00;99.90;;;;;;5063048;28;19910;-65
2020/12/22 06:59:42;;;;;;;;;;;6.90;99.90;;;;;;5008431;28;19971;-65
2020/12/22 07:02:26;;;;;;;;;;;6.90;99.90;;;;;;5027488;28;19928;-65
2020/12/22 07:04:52;;;;;;;;;;;6.90;99.90;;;;;;5055767;28;19908;-64
2020/12/22 07:07:17;;;;;;;;;;;6.80;99.90;;;;;;5059977;28;19919;-65
2020/12/22 07:09:43;;;;;;;;;;;6.80;99.90;;;;;;5051719;28;19916;-65
2020/12/22 07:12:08;;;;;;;;;;;6.80;99.90;;;;;;5064298;28;19908;-65
2020/12/22 07:14:36;;;;;;;;;;;6.80;99.90;;;;;;5068352;28;19904;-65
2020/12/22 07:17:03;;;;;;;;;;;6.90;99.90;;;;;;5051139;28;20345;-65
2020/12/22 07:19:29;;;;;;;;;;;6.90;99.90;;;;;;5067237;28;19917;-65
2020/12/22 07:21:55;;;;;;;;;;;6.90;99.90;;;;;;5062923;28;19908;-64
2020/12/22 07:24:21;;;;;;;;;;;7.00;99.90;;;;;;5049988;28;19927;-65
2020/12/22 07:26:46;;;;;;;;;;;7.00;99.90;;;;;;5058917;28;20384;-64
2020/12/22 07:29:12;;;;;;;;;;;7.10;99.90;;;;;;5066238;28;19986;-65
2020/12/22 07:31:38;;;;;;;;;;;7.10;99.90;;;;;;5059463;28;20277;-65
2020/12/22 07:34:04;;;;;;;;;;;7.10;99.90;;;;;;5061449;28;19909;-64
2020/12/22 07:36:30;;;;;;;;;;;7.20;99.90;;;;;;5064252;28;19908;-65
2020/12/22 07:39:08;;;;;;;;;;;7.20;99.90;;;;;;5050151;28;19904;-64
2020/12/22 07:41:34;;;;;;;;;;;7.10;99.90;;;;;;5061222;28;19908;-66
2020/12/22 07:44:05;;;;;;;;;;;7.20;99.90;;;;;;5061251;28;20466;-64
2020/12/22 07:46:30;;;;;;;;;;;7.10;99.90;;;;;;5059949;28;20401;-64
2020/12/22 07:48:56;;;;;;;;;;;7.00;99.90;;;;;;5069942;28;19957;-64
2020/12/22 07:51:21;;;;;;;;;;;6.90;99.90;;;;;;5063496;28;19908;-63
2020/12/22 07:53:47;;;;;;;;;;;7.00;99.90;;;;;;5051817;28;20278;-64
2020/12/22 07:56:12;;;;;;;;;;;7.10;99.90;;;;;;5067157;28;19908;-67
2020/12/22 07:58:38;;;;;;;;;;;7.20;99.90;;;;;;5068502;28;19912;-64
2020/12/22 08:01:04;;;;;;;;;;;7.10;99.90;;;;;;5065075;28;20391;-64
2020/12/22 08:03:30;;;;;;;;;;;7.30;99.90;;;;;;5069324;28;19912;-65
2020/12/22 08:05:59;;;;;;;;;;;7.40;99.90;;;;;;5063079;28;20451;-66
2020/12/22 08:08:24;;;;;;;;;;;7.30;99.90;;;;;;5044065;28;19909;-65
2020/12/22 08:10:50;;;;;;;;;;;7.50;99.90;;;;;;5067856;28;19970;-64
2020/12/22 08:13:16;;;;;;;;;;;7.60;99.90;;;;;;5068287;28;19904;-62
2020/12/22 08:15:42;;;;;;;;;;;7.80;99.90;;;;;;5056538;28;19912;-64
2020/12/22 08:18:07;;;;;;;;;;;8.60;99.90;;;;;;5057677;28;20526;-66
2020/12/22 08:20:34;;;;;;;;;;;8.30;99.90;;;;;;5060833;28;20447;-64
2020/12/22 08:23:01;;;;;;;;;;;8.20;99.90;;;;;;5063011;28;19916;-64
2020/12/22 08:25:26;;;;;;;;;;;8.30;99.90;;;;;;5061858;28;19938;-64
2020/12/22 08:27:55;;;;;;;;;;;8.30;99.90;;;;;;5069741;28;20553;-63
2020/12/22 08:30:21;;;;;;;;;;;8.30;99.90;;;;;;5058708;28;19916;-64
2020/12/22 08:32:46;;;;;;;;;;;8.50;99.90;;;;;;5070228;28;19912;-64
2020/12/22 08:35:19;;;;;;;;;;;8.40;99.90;;;;;;5068758;28;19908;-64
2020/12/22 08:37:45;;;;;;;;;;;8.50;99.90;;;;;;5061633;28;20372;-64
2020/12/22 08:40:24;;;;;;;;;;;8.50;99.90;;;;;;5058298;28;19926;-64
2020/12/22 08:42:50;;;;;;;;;;;8.40;99.90;;;;;;5065230;28;20296;-64
2020/12/22 08:45:15;;;;;;;;;;;8.50;99.90;;;;;;5062660;28;19916;-64
2020/12/22 08:47:49;;;;;;;;;;;8.60;99.90;;;;;;5057794;28;19908;-64
2020/12/22 08:50:14;;;;;;;;;;;8.70;99.90;;;;;;5060636;28;20272;-64
2020/12/22 08:52:40;;;;;;;;;;;8.70;99.90;;;;;;5069591;28;19987;-64
2020/12/22 08:55:10;;;;;;;;;;;8.70;99.90;;;;;;5069152;28;20003;-65
2020/12/22 08:57:36;;;;;;;;;;;8.90;99.90;;;;;;5061524;28;19904;-66
2020/12/22 09:00:14;;;;;;;;;;;8.90;99.90;;;;;;5060097;28;20303;-65
2020/12/22 09:02:43;;;;;;;;;;;9.10;99.90;;;;;;5071068;28;19978;-64
2020/12/22 09:05:14;;;;;;;;;;;9.10;99.90;;;;;;5070098;28;19908;-64
2020/12/22 09:07:40;;;;;;;;;;;9.30;99.90;;;;;;5071828;28;19911;-65
2020/12/22 09:10:06;;;;;;;;;;;9.50;99.90;;;;;;5066015;28;19916;-64
2020/12/22 09:12:32;;;;;;;;;;;9.40;99.90;;;;;;5070643;28;19947;-65
2020/12/22 09:15:00;;;;;;;;;;;9.50;99.90;;;;;;5065309;28;20557;-64
2020/12/22 09:17:30;;;;;;;;;;;9.60;99.90;;;;;;5069849;28;20449;-65
2020/12/22 09:19:55;;;;;;;;;;;9.80;99.90;;;;;;5068835;28;20388;-64
2020/12/22 09:22:22;;;;;;;;;;;9.80;99.90;;;;;;5070369;28;19920;-65
2020/12/22 09:24:54;;;;;;;;;;;9.80;99.90;;;;;;5065190;28;20464;-65
2020/12/22 09:27:39;;;;;;;;;;;9.90;99.90;;;;;;5067736;28;19908;-64
2020/12/22 09:30:09;;;;;;;;;;;9.90;99.90;;;;;;5059473;28;19995;-64
2020/12/22 09:32:35;;;;;;;;;;;10.00;99.90;;;;;;5058458;28;19916;-66
2020/12/22 09:35:00;;;;;;;;;;;10.00;99.90;;;;;;5068668;28;20304;-65
2020/12/22 09:37:26;;;;;;;;;;;10.30;99.90;;;;;;5069266;28;20002;-66
2020/12/22 09:39:53;;;;;;;;;;;10.20;99.90;;;;;;5068558;28;20441;-65
2020/12/22 09:42:19;;;;;;;;;;;10.50;99.90;;;;;;5058234;28;19917;-65
2020/12/22 09:44:44;;;;;;;;;;;10.50;99.90;;;;;;5068694;28;19908;-67
2020/12/22 09:47:10;;;;;;;;;;;10.70;99.90;;;;;;5070628;28;20031;-66
2020/12/22 09:49:35;;;;;;;;;;;10.70;99.90;;;;;;5060751;28;20594;-66
2020/12/22 09:52:02;;;;;;;;;;;10.80;99.90;;;;;;5066568;28;19904;-66
2020/12/22 09:54:27;;;;;;;;;;;10.80;99.90;;;;;;5060248;28;20482;-67
2020/12/22 09:56:53;;;;;;;;;;;11.20;99.90;;;;;;5059648;28;19909;-66
2020/12/22 09:59:18;;;;;;;;;;;11.40;99.90;;;;;;5064522;28;20021;-64
2020/12/22 10:01:44;;;;;;;;;;;11.60;99.90;;;;;;5062565;28;20561;-63
2020/12/22 10:04:10;;;;;;;;;;;11.60;99.90;;;;;;5067982;28;20380;-63
2020/12/22 10:06:36;;;;;;;;;;;11.60;99.90;;;;;;5062890;28;19912;-64
2020/12/22 10:09:02;;;;;;;;;;;11.80;99.90;;;;;;5063981;28;19924;-63
2020/12/22 10:11:30;;;;;;;;;;;11.80;99.90;;;;;;5060171;28;19912;-63
2020/12/22 10:13:56;;;;;;;;;;;12.10;99.90;;;;;;5070498;28;19916;-74
2020/12/22 10:16:22;;;;;;;;;;;12.30;99.90;;;;;;5064602;28;19908;-63
2020/12/22 10:18:48;;;;;;;;;;;12.60;99.90;;;;;;5066327;28;20420;-73
2020/12/22 10:21:14;;;;;;;;;;;12.50;99.90;;;;;;5067033;28;19909;-73
2020/12/22 10:23:40;;;;;;;;;;;12.70;99.90;;;;;;5069477;28;19916;-65
2020/12/22 10:26:07;;;;;;;;;;;12.80;99.90;;;;;;5067704;28;19905;-64
2020/12/22 10:28:34;;;;;;;;;;;12.90;99.90;;;;;;5066186;28;19954;-64
2020/12/22 10:31:00;;;;;;;;;;;13.10;99.90;;;;;;5065699;28;19998;-64
2020/12/22 10:33:25;;;;;;;;;;;13.20;99.90;;;;;;5071534;28;19914;-65
2020/12/22 10:35:51;;;;;;;;;;;13.20;99.90;;;;;;5068659;28;19958;-73
2020/12/22 10:38:17;;;;;;;;;;;13.00;99.90;;;;;;5069396;28;19915;-70
2020/12/22 10:40:42;;;;;;;;;;;13.20;99.90;;;;;;5065557;28;20423;-64
2020/12/22 10:43:08;;;;;;;;;;;13.40;99.90;;;;;;5067703;28;20310;-76
2020/12/22 10:45:34;;;;;;;;;;;13.60;99.90;;;;;;5076604;28;19901;-67
2020/12/22 10:48:00;;;;;;;;;;;13.50;99.90;;;;;;5070386;28;19904;-77
2020/12/22 10:50:25;;;;;;;;;;;13.80;99.90;;;;;;5067952;28;19928;-64
2020/12/22 10:52:51;;;;;;;;;;;14.00;99.90;;;;;;5076301;28;20184;-77
2020/12/22 10:55:16;;;;;;;;;;;14.20;99.90;;;;;;5075819;28;19900;-64
2020/12/22 10:57:42;;;;;;;;;;;14.20;99.90;;;;;;5066526;28;19916;-64
2020/12/22 11:00:08;;;;;;;;;;;14.40;99.90;;;;;;5053667;28;19916;-63
2020/12/22 11:02:34;;;;;;;;;;;14.60;99.90;;;;;;5061383;28;19916;-67
2020/12/22 11:04:59;;;;;;;;;;;14.50;99.90;;;;;;5067344;28;20486;-65
2020/12/22 11:07:46;;;;;;;;;;;15.80;99.90;;;;;;5059801;28;19939;-64
2020/12/22 11:10:11;;;;;;;;;;;15.80;99.90;;;;;;5062155;28;19916;-64
2020/12/22 11:12:37;;;;;;;;;;;15.20;99.90;;;;;;5065798;28;19912;-63
2020/12/22 11:15:03;;;;;;;;;;;15.20;99.90;;;;;;5075933;28;20212;-62
2020/12/22 11:17:29;;;;;;;;;;;15.20;99.90;;;;;;5080748;28;19908;-66
2020/12/22 11:19:54;;;;;;;;;;;15.10;99.90;;;;;;5067181;28;20246;-70
2020/12/22 11:22:20;;;;;;;;;;;15.10;99.90;;;;;;5075104;28;19950;-66
2020/12/22 11:24:45;;;;;;;;;;;15.30;99.90;;;;;;5059231;28;19916;-61
2020/12/22 11:27:11;;;;;;;;;;;15.40;99.90;;;;;;5067790;28;19904;-62
2020/12/22 11:29:36;;;;;;;;;;;15.30;99.90;;;;;;5064867;28;20414;-62
2020/12/22 11:32:02;;;;;;;;;;;15.30;99.90;;;;;;5067142;28;19900;-62
2020/12/22 11:34:27;;;;;;;;;;;15.50;99.90;;;;;;5068429;28;19912;-63
2020/12/22 11:36:54;;;;;;;;;;;16.00;99.90;;;;;;5063983;28;19926;-62
2020/12/22 11:39:20;;;;;;;;;;;16.10;99.90;;;;;;5066575;28;19908;-62
2020/12/22 11:41:45;;;;;;;;;;;16.50;99.90;;;;;;5060990;28;19908;-62
2020/12/22 11:44:11;;;;;;;;;;;16.70;99.90;;;;;;5049840;28;20078;-62
2020/12/22 11:46:37;;;;;;;;;;;16.40;99.90;;;;;;5062136;28;19916;-62
2020/12/22 11:49:05;;;;;;;;;;;16.80;99.90;;;;;;5068864;28;19915;-63
2020/12/22 11:51:31;;;;;;;;;;;17.00;99.90;;;;;;5064407;28;19912;-62
2020/12/22 11:53:56;;;;;;;;;;;17.20;99.90;;;;;;5053786;28;19916;-63
2020/12/22 11:56:22;;;;;;;;;;;17.20;99.90;;;;;;5068585;28;19915;-62
2020/12/22 11:58:47;;;;;;;;;;;17.50;99.90;;;;;;5056158;28;19940;-63
2020/12/22 12:01:13;;;;;;;;;;;17.80;99.90;;;;;;5066237;28;20389;-63
2020/12/22 12:03:40;;;;;;;;;;;17.70;99.90;;;;;;5071987;28;19924;-63
2020/12/22 12:06:09;;;;;;;;;;;17.70;99.90;;;;;;5066811;28;19916;-62
2020/12/22 12:08:35;;;;;;;;;;;18.00;99.90;;;;;;5071519;28;19924;-63
2020/12/22 12:11:00;;;;;;;;;;;18.10;99.90;;;;;;5065911;28;19912;-62
2020/12/22 12:13:26;;;;;;;;;;;18.20;99.90;;;;;;5064170;28;19908;-62
2020/12/22 12:15:51;;;;;;;;;;;18.50;99.90;;;;;;5063219;28;19908;-63
2020/12/22 12:18:17;;;;;;;;;;;18.50;99.90;;;;;;5058470;28;19910;-64
2020/12/22 12:20:42;;;;;;;;;;;18.80;99.90;;;;;;5058076;28;19935;-62
2020/12/22 12:23:08;;;;;;;;;;;18.90;99.90;;;;;;5059635;28;19916;-63
2020/12/22 12:25:33;;;;;;;;;;;19.20;99.90;;;;;;5056632;28;19908;-62
2020/12/22 12:27:59;;;;;;;;;;;19.50;99.90;;;;;;5060891;28;19905;-62
2020/12/22 12:30:24;;;;;;;;;;;19.80;99.90;;;;;;5055647;28;19991;-62
2020/12/22 12:32:50;;;;;;;;;;;19.90;99.90;;;;;;5061955;28;20426;-63
2020/12/22 12:35:15;;;;;;;;;;;19.80;99.90;;;;;;5055389;28;19939;-63
2020/12/22 12:37:41;;;;;;;;;;;19.90;99.90;;;;;;5061768;28;19999;-62
2020/12/22 12:40:06;;;;;;;;;;;20.00;99.90;;;;;;5055436;28;19908;-62
2020/12/22 12:42:32;;;;;;;;;;;19.20;99.90;;;;;;5061937;28;19919;-63
2020/12/22 12:44:58;;;;;;;;;;;19.30;99.90;;;;;;5055426;28;19927;-63
2020/12/22 12:47:23;;;;;;;;;;;19.20;99.90;;;;;;5068846;28;20373;-63
2020/12/22 12:49:49;;;;;;;;;;;19.00;99.90;;;;;;5071824;28;19908;-63
2020/12/22 12:52:15;;;;;;;;;;;19.20;99.90;;;;;;5061669;28;20462;-63
2020/12/22 12:54:40;;;;;;;;;;;19.10;99.90;;;;;;5053288;28;19987;-63
2020/12/22 12:57:06;;;;;;;;;;;19.70;99.90;;;;;;5063941;28;20365;-64
2020/12/22 12:59:32;;;;;;;;;;;19.80;99.90;;;;;;5055374;28;19908;-63
2020/12/22 13:01:58;;;;;;;;;;;20.30;99.90;;;;;;5063591;28;19931;-64
2020/12/22 13:04:23;;;;;;;;;;;20.40;99.90;;;;;;5051627;28;20363;-64
2020/12/22 13:06:49;;;;;;;;;;;20.20;99.90;;;;;;5060612;28;19924;-63
2020/12/22 13:09:19;;;;;;;;;;;20.40;99.90;;;;;;5072099;28;19924;-63
2020/12/22 13:11:45;;;;;;;;;;;20.40;99.90;;;;;;5064029;28;19910;-63
2020/12/22 13:14:10;;;;;;;;;;;20.40;99.90;;;;;;5052380;28;19905;-64
2020/12/22 13:16:38;;;;;;;;;;;20.70;99.90;;;;;;5079877;28;20404;-63
2020/12/22 13:19:03;;;;;;;;;;;20.20;99.90;;;;;;5065520;28;19904;-63
2020/12/22 13:21:29;;;;;;;;;;;20.20;99.90;;;;;;5067188;28;19908;-63
2020/12/22 13:23:54;;;;;;;;;;;20.20;99.90;;;;;;5071487;28;19912;-63
2020/12/22 13:26:20;;;;;;;;;;;20.20;99.90;;;;;;5067188;28;20372;-64
2020/12/22 13:28:45;;;;;;;;;;;20.40;99.90;;;;;;5071794;28;19908;-63
2020/12/22 13:31:11;;;;;;;;;;;21.00;99.90;;;;;;5062620;28;19909;-63
2020/12/22 13:33:36;;;;;;;;;;;20.90;99.90;;;;;;5068893;28;19952;-64
2020/12/22 13:36:02;;;;;;;;;;;19.80;99.90;;;;;;5065279;28;19908;-63
2020/12/22 13:38:28;;;;;;;;;;;19.40;99.90;;;;;;5055375;28;19909;-66
2020/12/22 13:40:54;;;;;;;;;;;19.40;99.90;;;;;;5055037;28;19950;-63
2020/12/22 13:43:20;;;;;;;;;;;19.70;99.90;;;;;;5068453;28;19916;-67
2020/12/22 13:45:45;;;;;;;;;;;20.20;99.90;;;;;;5062638;28;19912;-63
2020/12/22 13:48:11;;;;;;;;;;;20.50;99.90;;;;;;5068776;28;20314;-64
2020/12/22 13:50:36;;;;;;;;;;;20.50;99.90;;;;;;5068050;28;19908;-69
2020/12/22 13:53:02;;;;;;;;;;;20.20;99.90;;;;;;5073915;28;19904;-69
2020/12/22 13:55:27;;;;;;;;;;;19.90;99.90;;;;;;5076573;28;20371;-63
2020/12/22 13:57:53;;;;;;;;;;;20.10;99.90;;;;;;5078241;28;19959;-66
2020/12/22 14:00:21;;;;;;;;;;;20.30;99.90;;;;;;5051575;28;19999;-64
2020/12/22 14:02:46;;;;;;;;;;;20.20;99.90;;;;;;5070337;28;19917;-69
2020/12/22 14:05:12;;;;;;;;;;;20.10;99.90;;;;;;5083483;28;19912;-70
2020/12/22 14:07:37;;;;;;;;;;;20.00;99.90;;;;;;5078625;28;19917;-63
2020/12/22 14:10:03;;;;;;;;;;;20.10;99.90;;;;;;5075029;28;20222;-64
2020/12/22 14:12:28;;;;;;;;;;;20.40;99.90;;;;;;5081762;28;19961;-66
2020/12/22 14:14:54;;;;;;;;;;;19.90;99.90;;;;;;5074697;28;20266;-63
2020/12/22 14:17:19;;;;;;;;;;;20.10;99.90;;;;;;5072912;28;20226;-63
2020/12/22 14:19:45;;;;;;;;;;;20.40;99.90;;;;;;5079506;28;19923;-64
2020/12/22 14:22:10;;;;;;;;;;;20.20;99.90;;;;;;5078442;28;19913;-65